createdAt,value
2019-05-30T04:03:57.890Z,102323.85
2019-05-30T04:07:25.960Z,102327.92
2019-05-30T04:10:54.891Z,102324.75
2019-05-30T04:14:22.851Z,102322.39
2019-05-30T04:17:50.836Z,102325.26
2019-05-30T04:21:21.592Z,102316.28
2019-05-30T04:24:49.795Z,102313.74
2019-05-30T04:28:18.937Z,102311.25
2019-05-30T04:31:46.703Z,102314.96
2019-05-30T04:35:16.793Z,102313.89
2019-05-30T04:38:45.590Z,102314.59
2019-05-30T04:42:16.059Z,102307.23
2019-05-30T04:45:45.556Z,102311.5
2019-05-30T04:49:16.797Z,102313.68
2019-05-30T04:52:46.404Z,102314.25
2019-05-30T04:56:17.014Z,102310.78
2019-05-30T04:59:46.436Z,102304.76
2019-05-30T05:03:23.211Z,102308.71
2019-05-30T05:06:49.213Z,102302.3
2019-05-30T05:10:20.331Z,102300.93
2019-05-30T05:13:49.108Z,102304.25
2019-05-30T05:17:18.813Z,102299.65
2019-05-30T05:20:47.063Z,102294.42
2019-05-30T05:24:17.196Z,102296.14
2019-05-30T05:27:47.968Z,102292.98
2019-05-30T05:31:16.448Z,102288.34
2019-05-30T05:34:46.970Z,102290.03
2019-05-30T05:38:20.060Z,102284.71
2019-05-30T05:41:49.818Z,102288.64
2019-05-30T05:45:18.237Z,102280.43
2019-05-30T05:48:46.791Z,102283.57
2019-05-30T05:52:14.744Z,102276.2
2019-05-30T05:55:43.799Z,102274.23
2019-05-30T05:59:11.743Z,102266
2019-05-30T06:02:39.714Z,102268.09
2019-05-30T06:06:07.682Z,102264.37
2019-05-30T06:09:35.638Z,102257.21
2019-05-30T06:13:03.625Z,102256.23
2019-05-30T06:16:32.435Z,102252.67
2019-05-30T06:20:00.442Z,102253.59
2019-05-30T06:23:28.404Z,102248.1
2019-05-30T06:26:56.373Z,102248.82
2019-05-30T06:30:26.400Z,102256.07
2019-05-30T06:33:55.270Z,102252.29
2019-05-30T06:37:25.186Z,102245.52
2019-05-30T06:40:52.267Z,102239.61
2019-05-30T06:44:20.218Z,102238.89
2019-05-30T06:47:48.159Z,102242.18
2019-05-30T06:51:16.139Z,102237.07
2019-05-30T06:54:45.092Z,102235.97
2019-05-30T06:58:13.187Z,102231.04
2019-05-30T07:01:41.140Z,102227.39
2019-05-30T07:05:10.718Z,102232.43
2019-05-30T07:08:40.996Z,102230.88
2019-05-30T07:12:11.976Z,102230.07
2019-05-30T07:15:39.013Z,102231.67
2019-05-30T07:19:06.955Z,102229.02
2019-05-30T07:22:35.907Z,102226.67
2019-05-30T07:26:04.884Z,102220.93
2019-05-30T07:29:34.131Z,102228.55
2019-05-30T07:33:01.797Z,102225.96
2019-05-30T07:36:30.575Z,102235.96
2019-05-30T07:39:58.542Z,102219.4
2019-05-30T07:43:30.157Z,102216.91
2019-05-30T07:46:59.432Z,102227.02
2019-05-30T07:50:30.426Z,102228.93
2019-05-30T07:54:00.343Z,102209.6
2019-05-30T07:57:28.289Z,102210.04
2019-05-30T08:00:57.242Z,102201.94
2019-05-30T08:04:25.206Z,102202.71
2019-05-30T08:07:56.133Z,102191.42
2019-05-30T08:11:24.099Z,102187.48
2019-05-30T08:14:52.087Z,102179.21
2019-05-30T08:18:20.046Z,102171.37
2019-05-30T08:21:48.015Z,102171.7
2019-05-30T08:25:16.009Z,102170.89
2019-05-30T08:28:44.953Z,102175.59
2019-05-30T08:32:12.896Z,102171.23
2019-05-30T08:35:49.430Z,102171.17
2019-05-30T08:39:14.866Z,102154.1
2019-05-30T08:42:42.765Z,102150.1
2019-05-30T08:46:10.720Z,102147.85
2019-05-30T08:49:38.680Z,102152.7
2019-05-30T08:53:06.657Z,102144.51
2019-05-30T08:56:36.494Z,102139.84
2019-05-30T09:00:04.588Z,102135.5
2019-05-30T09:03:32.536Z,102136.7
2019-05-30T09:07:02.485Z,102142.78
2019-05-30T09:10:31.446Z,102132.93
2019-05-30T09:14:00.390Z,102127.06
2019-05-30T09:17:28.351Z,102124.95
2019-05-30T09:20:56.352Z,102121.43
2019-05-30T09:24:24.336Z,102124.7
2019-05-30T09:27:52.247Z,102118.46
2019-05-30T09:31:20.198Z,102114.26
2019-05-30T09:34:49.166Z,102116.28
2019-05-30T09:38:17.111Z,102110.28
2019-05-30T09:41:46.063Z,102110.78
2019-05-30T09:45:14.029Z,102091.4
2019-05-30T09:48:44.752Z,102083
2019-05-30T09:52:12.945Z,102079.26
2019-05-30T09:55:41.307Z,102080.05
2019-05-30T09:59:12.882Z,102063.7
2019-05-30T10:02:42.887Z,102061.7
2019-05-30T10:06:28.352Z,102061.89
2019-05-30T10:09:50.895Z,102063.04
2019-05-30T10:13:19.646Z,102056.6
2019-05-30T10:16:53.281Z,102047.28
2019-05-30T10:20:21.537Z,102043.14
2019-05-30T10:23:52.346Z,102042.32
2019-05-30T10:27:20.458Z,102043.49
2019-05-30T10:30:54.261Z,102032.74
2019-05-30T10:34:22.325Z,102029.95
2019-05-30T10:37:51.289Z,102028.27
2019-05-30T10:41:19.252Z,102031.6
2019-05-30T10:44:50.001Z,102033.93
2019-05-30T10:48:22.153Z,102031.09
2019-05-30T10:51:51.584Z,102025.45
2019-05-30T10:55:24.030Z,102018.85
2019-05-30T10:58:55.009Z,102019.78
2019-05-30T11:02:23.972Z,102019.57
2019-05-30T11:05:54.977Z,102015.51
2019-05-30T11:09:23.847Z,102008.85
2019-05-30T11:13:00.134Z,102006.25
2019-05-30T11:16:26.721Z,102002.49
2019-05-30T11:19:57.883Z,102005.6
2019-05-30T11:23:25.586Z,101991.14
2019-05-30T11:26:55.896Z,101985.17
2019-05-30T11:30:25.506Z,101983.03
2019-05-30T11:33:53.461Z,101983.59
2019-05-30T11:37:23.437Z,101975.97
2019-05-30T11:40:53.342Z,101973.51
2019-05-30T11:44:24.293Z,101982.06
2019-05-30T11:47:53.679Z,101971.17
2019-05-30T11:51:24.170Z,101973.54
2019-05-30T11:54:54.135Z,101973.56
2019-05-30T11:58:22.115Z,101969.65
2019-05-30T12:01:52.895Z,101969.06
2019-05-30T12:05:24.075Z,101969.55
2019-05-30T12:08:54.721Z,101958.82
2019-05-30T12:12:22.920Z,101957.65
2019-05-30T12:15:53.291Z,101953.68
2019-05-30T12:19:24.815Z,101950.07
2019-05-30T12:22:55.805Z,101955.68
2019-05-30T12:26:27.699Z,101955.09
2019-05-30T12:29:58.198Z,101957.61
2019-05-30T12:33:26.570Z,101952.12
2019-05-30T12:36:58.461Z,101954.28
2019-05-30T12:40:28.411Z,101951.87
2019-05-30T12:43:56.951Z,101956.79
2019-05-30T12:47:24.345Z,101958.39
2019-05-30T12:50:53.158Z,101962.33
2019-05-30T12:54:20.247Z,101959.72
2019-05-30T12:57:48.200Z,101958.81
2019-05-30T13:01:16.148Z,101965.57
2019-05-30T13:04:44.114Z,101967.33
2019-05-30T13:08:21.487Z,101960.85
2019-05-30T13:11:46.032Z,101966.89
2019-05-30T13:15:13.993Z,101965.34
2019-05-30T13:18:41.959Z,101972.56
2019-05-30T13:22:09.898Z,101967.46
2019-05-30T13:25:37.912Z,101970.87
2019-05-30T13:29:06.863Z,101967.71
2019-05-30T13:32:34.818Z,101974.18
2019-05-30T13:36:05.040Z,101975.28
2019-05-30T13:39:33.716Z,101972.4
2019-05-30T13:43:03.835Z,101968.87
2019-05-30T13:46:33.587Z,101972.29
2019-05-30T13:50:07.734Z,101984.35
2019-05-30T13:53:37.143Z,101973.46
2019-05-30T13:57:05.751Z,101979.56
2019-05-30T14:00:34.039Z,101980.93
2019-05-30T14:04:04.346Z,101991.98
2019-05-30T14:07:34.926Z,101981.89
2019-05-30T14:11:02.889Z,101980.01
2019-05-30T14:14:30.857Z,101988.68
2019-05-30T14:17:58.833Z,101974.43
2019-05-30T14:21:27.827Z,101964
2019-05-30T14:24:55.781Z,101985.71
2019-05-30T14:28:23.769Z,101975.29
2019-05-30T14:31:51.719Z,101983.47
2019-05-30T14:35:19.683Z,101984.57
2019-05-30T14:38:58.122Z,101978.26
2019-05-30T14:42:24.045Z,101975.92
2019-05-30T14:45:51.996Z,101977.67
2019-05-30T14:49:20.946Z,101973.92
2019-05-30T14:52:48.898Z,101981.85
2019-05-30T14:56:17.509Z,101977.64
2019-05-30T14:59:44.823Z,101981.21
2019-05-30T15:03:15.986Z,101981.53
2019-05-30T15:06:43.803Z,101984.35
2019-05-30T15:10:13.735Z,101991.6
2019-05-30T15:13:42.708Z,101994.76
2019-05-30T15:17:10.653Z,101989.53
2019-05-30T15:20:40.610Z,101989.51
2019-05-30T15:24:12.710Z,101987.14
2019-05-30T15:27:40.530Z,101995.46
2019-05-30T15:31:08.561Z,101994
2019-05-30T15:34:36.542Z,101991.53
2019-05-30T15:38:04.510Z,102010.84
2019-05-30T15:41:35.517Z,101996.88
2019-05-30T15:45:03.492Z,102009.78
2019-05-30T15:48:32.455Z,102009.39
2019-05-30T15:52:00.416Z,102004.45
2019-05-30T15:55:28.373Z,102000
2019-05-30T15:58:56.391Z,101994.12
2019-05-30T16:02:24.363Z,101999.96
2019-05-30T16:05:52.293Z,101996.21
2019-05-30T16:09:20.914Z,101996.29
2019-05-30T16:12:48.212Z,102004.59
2019-05-30T16:16:16.206Z,102000.28
2019-05-30T16:19:47.186Z,101993.17
2019-05-30T16:23:16.208Z,101996.81
2019-05-30T16:26:48.033Z,101991.6
2019-05-30T16:30:21.662Z,101998.03
2019-05-30T16:33:49.926Z,101996.82
2019-05-30T16:37:20.078Z,101996.55
2019-05-30T16:40:48.849Z,101999.59
2019-05-30T16:44:18.700Z,101995.68
2019-05-30T16:47:49.283Z,102003.83
2019-05-30T16:51:18.782Z,102007.79
2019-05-30T16:54:48.749Z,102009.17
2019-05-30T16:58:17.742Z,102004.67
2019-05-30T17:01:56.660Z,102003.12
2019-05-30T17:05:19.855Z,101997.2
2019-05-30T17:08:47.888Z,101982.26
2019-05-30T17:12:15.887Z,101991.73
2019-05-30T17:15:45.854Z,101990.63
2019-05-30T17:19:13.860Z,101985.7
2019-05-30T17:22:44.826Z,101985.6
2019-05-30T17:26:13.763Z,101984.35
2019-05-30T17:29:43.735Z,101987.56
2019-05-30T17:33:11.732Z,101987.6
2019-05-30T17:36:41.760Z,101987.75
2019-05-30T17:40:10.850Z,101988.03
2019-05-30T17:43:38.656Z,101991.12
2019-05-30T17:47:06.612Z,101980.46
2019-05-30T17:50:34.548Z,101976.24
2019-05-30T17:54:02.551Z,101978.17
2019-05-30T17:57:32.514Z,101971.77
2019-05-30T18:01:00.461Z,101982.83
2019-05-30T18:04:30.654Z,101982.41
2019-05-30T18:07:58.379Z,101984.68
2019-05-30T18:11:26.915Z,101979.73
2019-05-30T18:14:54.377Z,101975.97
2019-05-30T18:18:27.203Z,101990.96
2019-05-30T18:21:56.921Z,101990.25
2019-05-30T18:25:25.888Z,101995.73
2019-05-30T18:28:53.851Z,101993.05
2019-05-30T18:32:24.060Z,101980.22
2019-05-30T18:35:55.830Z,101988.31
2019-05-30T18:39:24.454Z,101990.88
2019-05-30T18:42:51.787Z,101991.42
2019-05-30T18:46:19.733Z,101988.3
2019-05-30T18:49:48.736Z,101990.34
2019-05-30T18:53:16.706Z,101984.92
2019-05-30T18:56:44.674Z,101988.33
2019-05-30T19:00:16.513Z,101990.78
2019-05-30T19:03:44.912Z,101988.37
2019-05-30T19:07:12.990Z,101990.06
2019-05-30T19:10:41.098Z,101986.7
2019-05-30T19:14:09.076Z,101990.53
2019-05-30T19:17:38.071Z,101986.76
2019-05-30T19:21:07.005Z,101986.54
2019-05-30T19:24:35.034Z,101990.64
2019-05-30T19:28:03.037Z,102000.95
2019-05-30T19:31:31.060Z,102002.97
2019-05-30T19:34:59.014Z,102005.85
2019-05-30T19:38:29.339Z,102009.28
2019-05-30T19:42:00.872Z,102004.23
2019-05-30T19:45:31.951Z,102003.08
2019-05-30T19:49:02.849Z,102005.65
2019-05-30T19:52:32.615Z,102010.39
2019-05-30T19:55:59.809Z,102002.8
2019-05-30T19:59:27.761Z,102012.59
2019-05-30T20:02:56.831Z,102005.29
2019-05-30T20:06:25.755Z,102005.48
2019-05-30T20:10:01.085Z,102008.9
2019-05-30T20:13:28.948Z,102006.13
2019-05-30T20:16:59.887Z,102006.93
2019-05-30T20:20:27.840Z,102011.59
2019-05-30T20:23:59.828Z,102012.25
2019-05-30T20:27:29.134Z,102012.56
2019-05-30T20:31:02.079Z,102022.34
2019-05-30T20:34:30.040Z,102015.03
2019-05-30T20:38:01.508Z,102015.77
2019-05-30T20:41:27.958Z,102018.54
2019-05-30T20:44:55.918Z,102023.1
2019-05-30T20:48:24.763Z,102020.54
2019-05-30T20:51:54.594Z,102024.85
2019-05-30T20:55:22.568Z,102025.61
2019-05-30T20:58:50.524Z,102027.21
2019-05-30T21:02:18.623Z,102026.92
2019-05-30T21:05:46.600Z,102030.96
2019-05-30T21:09:28.190Z,102035.53
2019-05-30T21:12:50.441Z,102030.6
2019-05-30T21:16:18.399Z,102032.56
2019-05-30T21:19:46.382Z,102034.9
2019-05-30T21:23:14.355Z,102040.37
2019-05-30T21:26:42.749Z,102040.04
2019-05-30T21:30:11.295Z,102038.9
2019-05-30T21:33:41.609Z,102038.32
2019-05-30T21:37:12.124Z,102034.75
2019-05-30T21:40:42.358Z,102034.72
2019-05-30T21:44:13.995Z,102036.54
2019-05-30T21:47:44.725Z,102037.67
2019-05-30T21:51:12.869Z,102039.09
2019-05-30T21:54:41.814Z,102047.08
2019-05-30T21:58:10.825Z,102039.89
